Time;durP1;ratioP1;P1;durP2;ratioP2;P2;SDS_P1;SDS_P2;PMS_P1;PMS_P2;Temp;Humidity;BMP_temperature;BMP_pressure;BME280_temperature;BME280_humidity;BME280_pressure;Samples;Min_cycle;Max_cycle;Signal;HPM_P1;HPM_P2
2022/04/05 00:02:08;;;;;;;13.45;8.07;;;;;;;4.90;100.00;98797.34;5075525;28;20097;-82
2022/04/05 00:04:33;;;;;;;13.15;7.93;;;;;;;4.89;100.00;98792.97;5074976;28;20021;-82
2022/04/05 00:06:59;;;;;;;13.65;7.88;;;;;;;4.96;100.00;98794.53;5076372;28;20031;-82
2022/04/05 00:09:24;;;;;;;14.55;8.00;;;;;;;4.99;100.00;98794.44;5084854;28;20401;-83
2022/04/05 00:11:49;;;;;;;12.48;7.30;;;;;;;4.96;100.00;98794.53;5086180;28;20140;-83
2022/04/05 00:14:15;;;;;;;13.55;7.80;;;;;;;4.99;100.00;98794.44;5087516;28;20016;-83
2022/04/05 00:16:40;;;;;;;13.30;7.80;;;;;;;4.90;100.00;98795.56;5088365;28;20100;-83
2022/04/05 00:19:05;;;;;;;12.65;6.97;;;;;;;4.95;100.00;98798.06;5090542;28;20021;-83
2022/04/05 00:21:31;;;;;;;12.07;7.13;;;;;;;4.89;100.00;98798.28;5089192;28;20443;-83
2022/04/05 00:23:56;;;;;;;9.73;6.05;;;;;;;4.90;100.00;98786.75;5089103;28;20025;-83
2022/04/05 00:26:21;;;;;;;10.95;6.35;;;;;;;4.87;100.00;98784.22;5089060;28;20024;-83
2022/04/05 00:28:47;;;;;;;10.45;6.03;;;;;;;4.80;100.00;98789.69;5086775;28;20043;-82
2022/04/05 00:31:12;;;;;;;9.25;5.35;;;;;;;4.79;100.00;98792.41;5083096;28;20044;-83
2022/04/05 00:33:37;;;;;;;6.53;4.45;;;;;;;4.88;100.00;98785.94;5085087;28;20024;-83
2022/04/05 00:36:03;;;;;;;8.60;4.93;;;;;;;4.84;100.00;98794.91;5085230;28;20041;-82
2022/04/05 00:38:28;;;;;;;8.00;4.70;;;;;;;4.77;100.00;98799.50;5087927;28;20056;-83
2022/04/05 00:40:53;;;;;;;8.38;4.97;;;;;;;4.78;100.00;98796.81;5087918;28;20070;-83
2022/04/05 00:43:19;;;;;;;8.07;4.50;;;;;;;4.78;100.00;98798.59;5090290;28;20021;-82
2022/04/05 00:45:44;;;;;;;8.18;4.60;;;;;;;4.81;100.00;98801.16;5086619;28;20016;-83
2022/04/05 00:48:11;;;;;;;8.45;4.30;;;;;;;4.77;100.00;98797.72;5082747;28;20024;-83
2022/04/05 00:50:38;;;;;;;7.57;4.22;;;;;;;4.81;100.00;98801.16;5082795;28;20049;-83
2022/04/05 00:53:06;;;;;;;6.32;3.53;;;;;;;4.80;100.00;98794.13;5083060;28;20039;-83
2022/04/05 00:55:33;;;;;;;6.60;3.75;;;;;;;4.75;100.00;98799.53;5083210;28;20024;-83
2022/04/05 00:58:04;;;;;;;6.82;3.20;;;;;;;4.74;100.00;98796.97;5084075;28;20033;-83
2022/04/05 01:00:30;;;;;;;5.25;3.17;;;;;;;4.74;100.00;98800.44;5085403;28;20500;-83
2022/04/05 01:02:58;;;;;;;7.32;4.00;;;;;;;4.74;100.00;98800.44;5085324;28;20021;-82
2022/04/05 01:05:26;;;;;;;5.10;3.35;;;;;;;4.78;100.00;98795.94;5083459;28;20016;-83
2022/04/05 01:07:53;;;;;;;5.55;3.40;;;;;;;4.72;100.00;98791.69;5084133;28;20059;-82
2022/04/05 01:10:21;;;;;;;5.30;3.22;;;;;;;4.76;100.00;98787.19;5082429;28;20050;-83
2022/04/05 01:12:48;;;;;;;8.50;3.33;;;;;;;4.72;100.00;98797.00;5077695;28;20366;-82
2022/04/05 01:15:13;;;;;;;5.82;3.60;;;;;;;4.74;100.00;98795.16;5076776;28;20461;-81
2022/04/05 01:17:39;;;;;;;6.20;2.97;;;;;;;4.71;100.00;98795.28;5074506;28;20033;-82
2022/04/05 01:20:05;;;;;;;6.07;2.97;;;;;;;4.67;100.00;98793.63;5074370;28;20028;-81
2022/04/05 01:22:30;;;;;;;5.88;2.95;;;;;;;4.64;100.00;98791.94;5076734;28;20099;-82
2022/04/05 01:24:56;;;;;;;5.38;3.40;;;;;;;4.66;100.00;98791.91;5082597;28;20017;-81
2022/04/05 01:27:27;;;;;;;6.13;2.72;;;;;;;4.64;100.00;98785.78;5083558;28;20036;-81
2022/04/05 01:29:52;;;;;;;4.45;2.88;;;;;;;4.65;100.00;98788.38;5084584;28;20493;-81
2022/04/05 01:32:18;;;;;;;4.20;2.50;;;;;;;4.67;100.00;98796.25;5085394;28;20040;-81
2022/04/05 01:34:43;;;;;;;3.92;2.55;;;;;;;4.63;100.00;98786.69;5084597;28;20021;-82
2022/04/05 01:37:10;;;;;;;4.72;2.50;;;;;;;4.64;100.00;98788.44;5086897;28;20028;-82
2022/04/05 01:39:37;;;;;;;3.63;2.40;;;;;;;4.65;100.00;98796.31;5087274;28;20021;-82
2022/04/05 01:42:03;;;;;;;3.85;2.30;;;;;;;4.78;100.00;98791.53;5090619;28;20059;-83
2022/04/05 01:44:31;;;;;;;5.20;2.90;;;;;;;4.73;100.00;98779.34;5092604;28;20021;-84
2022/04/05 01:46:57;;;;;;;6.90;3.85;;;;;;;4.70;100.00;98788.25;5087762;28;20028;-82
2022/04/05 01:49:22;;;;;;;5.82;3.72;;;;;;;4.67;100.00;98785.69;5088497;28;20031;-82
2022/04/05 01:51:49;;;;;;;7.05;4.60;;;;;;;4.73;100.00;98792.56;5089297;28;20035;-83
2022/04/05 01:54:15;;;;;;;8.57;5.20;;;;;;;4.61;100.00;98794.69;5091971;28;20024;-83
2022/04/05 01:56:43;;;;;;;7.53;4.07;;;;;;;4.76;100.00;98787.19;5092569;28;20024;-82
2022/04/05 01:59:13;;;;;;;5.40;3.63;;;;;;;4.64;100.00;98799.03;5092963;28;20004;-82
2022/04/05 02:01:39;;;;;;;5.68;3.33;;;;;;;4.68;100.00;98798.88;5083519;28;20029;-82
2022/04/05 02:04:05;;;;;;;6.10;3.85;;;;;;;4.56;100.00;98786.88;5083227;28;20381;-83
2022/04/05 02:06:30;;;;;;;5.18;3.03;;;;;;;4.61;100.00;98788.53;5084525;28;20069;-82
2022/04/05 02:08:55;;;;;;;5.15;3.10;;;;;;;4.58;100.00;98794.78;5084693;28;20115;-83
2022/04/05 02:11:21;;;;;;;6.07;3.17;;;;;;;4.63;100.00;98792.00;5083198;28;20031;-82
2022/04/05 02:13:46;;;;;;;5.03;2.70;;;;;;;4.64;100.00;98793.72;5079144;28;20024;-82
2022/04/05 02:16:11;;;;;;;4.93;2.40;;;;;;;4.51;100.00;98794.06;5081401;28;20021;-83
2022/04/05 02:18:37;;;;;;;5.82;2.40;;;;;;;4.54;100.00;98804.56;5082012;28;20090;-83
2022/04/05 02:21:03;;;;;;;3.80;2.00;;;;;;;4.58;100.00;98806.22;5079632;28;20020;-82
2022/04/05 02:23:29;;;;;;;4.07;2.10;;;;;;;4.58;100.00;98808.00;5076766;28;20029;-82
2022/04/05 02:25:54;;;;;;;3.65;2.35;;;;;;;4.47;100.00;98810.94;5075922;28;20019;-82
2022/04/05 02:28:20;;;;;;;4.13;2.45;;;;;;;4.47;100.00;98809.16;5075638;28;20020;-82
2022/04/05 02:30:45;;;;;;;3.55;2.10;;;;;;;4.51;100.00;98815.22;5074965;28;20025;-82
2022/04/05 02:33:12;;;;;;;4.00;1.98;;;;;;;4.57;100.00;98815.03;5074197;28;20024;-82
2022/04/05 02:35:39;;;;;;;4.80;2.17;;;;;;;4.55;100.00;98816.88;5077110;28;20035;-82
2022/04/05 02:38:05;;;;;;;3.65;1.92;;;;;;;4.46;100.00;98819.75;5079577;28;20050;-82
2022/04/05 02:40:31;;;;;;;3.47;2.25;;;;;;;4.71;100.00;98826.13;5067291;28;20033;-82
2022/04/05 02:42:56;;;;;;;4.90;2.72;;;;;;;4.60;100.00;98826.44;5086817;28;20461;-82
2022/04/05 02:45:22;;;;;;;4.20;2.45;;;;;;;4.56;100.00;98825.69;5085458;28;20389;-82
2022/04/05 02:47:49;;;;;;;4.50;3.08;;;;;;;4.53;100.00;98834.56;5086869;28;20015;-82
2022/04/05 02:50:18;;;;;;;4.50;3.10;;;;;;;4.53;100.00;98826.63;5085716;28;20016;-83
2022/04/05 02:52:48;;;;;;;5.55;3.50;;;;;;;4.49;100.00;98832.91;5084604;28;20540;-83
2022/04/05 02:55:15;;;;;;;6.50;3.42;;;;;;;4.55;100.00;98827.44;5086442;28;20031;-84
2022/04/05 02:57:42;;;;;;;6.47;3.42;;;;;;;4.62;100.00;98828.13;5088663;28;20482;-83
2022/04/05 03:00:08;;;;;;;5.57;3.72;;;;;;;4.56;100.00;98842.38;5090810;28;20021;-84
2022/04/05 03:02:34;;;;;;;6.00;3.67;;;;;;;4.58;100.00;98837.94;5092542;22;20144;-78
2022/04/05 03:05:01;;;;;;;6.45;3.80;;;;;;;4.61;100.00;98833.47;5076909;28;20024;-78
2022/04/05 03:07:27;;;;;;;6.05;4.00;;;;;;;4.65;100.00;98829.81;5078637;28;20047;-78
2022/04/05 03:09:52;;;;;;;7.25;4.10;;;;;;;4.56;100.00;98845.03;5078012;28;20481;-78
2022/04/05 03:12:18;;;;;;;7.43;4.25;;;;;;;4.55;100.00;98838.03;5078369;28;20024;-77
2022/04/05 03:14:45;;;;;;;6.22;3.70;;;;;;;4.55;100.00;98839.78;5078290;28;20069;-78
2022/04/05 03:17:11;;;;;;;7.50;3.70;;;;;;;4.50;100.00;98845.22;5077915;28;20025;-78
2022/04/05 03:19:37;;;;;;;6.55;4.05;;;;;;;4.52;100.00;98843.41;5077481;28;20031;-79
2022/04/05 03:22:02;;;;;;;6.43;4.10;;;;;;;4.61;100.00;98846.69;5077443;28;20084;-78
2022/04/05 03:24:28;;;;;;;6.50;4.40;;;;;;;4.52;100.00;98848.69;5077898;28;20020;-77
2022/04/05 03:26:53;;;;;;;7.97;4.70;;;;;;;4.51;100.00;98849.56;5077355;28;20017;-77
2022/04/05 03:29:18;;;;;;;6.65;4.07;;;;;;;4.63;100.00;98850.16;5078677;28;20051;-77
2022/04/05 03:31:43;;;;;;;7.40;4.25;;;;;;;4.51;100.00;98851.38;5078648;28;20032;-77
2022/04/05 03:34:09;;;;;;;7.00;4.15;;;;;;;4.51;100.00;98859.31;5078436;28;20024;-77
2022/04/05 03:36:34;;;;;;;7.97;4.40;;;;;;;4.49;100.00;98854.06;5078920;28;20021;-77
2022/04/05 03:39:00;;;;;;;8.40;4.45;;;;;;;4.46;100.00;98857.66;5079582;28;20028;-78
2022/04/05 03:41:25;;;;;;;6.45;4.13;;;;;;;4.54;100.00;98857.44;5079942;28;20031;-78
2022/04/05 03:43:51;;;;;;;7.03;4.20;;;;;;;4.47;100.00;98862.03;5079751;28;20361;-78
2022/04/05 03:46:16;;;;;;;7.18;4.82;;;;;;;4.44;100.00;98867.41;5077252;28;20119;-78
2022/04/05 03:48:42;;;;;;;5.57;3.60;;;;;;;4.54;100.00;98864.50;5079532;28;20537;-78
2022/04/05 03:51:09;;;;;;;9.95;4.15;;;;;;;4.48;100.00;98868.19;5078085;28;20086;-78
2022/04/05 03:53:36;;;;;;;6.95;4.15;;;;;;;4.50;100.00;98871.66;5078312;28;20496;-78
2022/04/05 03:56:01;;;;;;;8.65;4.63;;;;;;;4.48;100.00;98873.47;5079801;28;20078;-78
2022/04/05 03:58:27;;;;;;;5.60;4.18;;;;;;;4.45;100.00;98877.06;5078536;28;20021;-78
2022/04/05 04:00:53;;;;;;;8.32;4.70;;;;;;;4.43;100.00;98875.38;5078268;28;20031;-79
2022/04/05 04:03:19;;;;;;;7.35;4.10;;;;;;;4.46;100.00;98876.16;5076182;28;20393;-78
2022/04/05 04:05:44;;;;;;;8.02;3.97;;;;;;;4.44;100.00;98877.09;5076643;28;20016;-78
2022/04/05 04:08:09;;;;;;;10.68;4.10;;;;;;;4.43;100.00;98883.31;5076488;28;20035;-79
2022/04/05 04:10:35;;;;;;;7.65;4.03;;;;;;;4.45;100.00;98884.13;5074380;28;20538;-79
2022/04/05 04:13:00;;;;;;;6.07;3.72;;;;;;;4.49;100.00;98880.47;5075269;28;20020;-78
2022/04/05 04:15:25;;;;;;;6.15;3.63;;;;;;;4.48;100.00;98878.75;5075682;28;20548;-77
2022/04/05 04:17:51;;;;;;;4.95;3.38;;;;;;;4.49;100.00;98884.91;5077103;28;20035;-79
2022/04/05 04:20:16;;;;;;;5.53;3.55;;;;;;;4.43;100.00;98880.66;5078224;28;20051;-79
2022/04/05 04:22:41;;;;;;;6.68;3.67;;;;;;;4.47;100.00;98877.03;5077283;28;20020;-79
2022/04/05 04:25:07;;;;;;;5.45;3.60;;;;;;;4.44;100.00;98880.63;5078762;28;20103;-79
2022/04/05 04:27:34;;;;;;;6.63;3.65;;;;;;;4.44;100.00;98879.75;5078018;28;20031;-77
2022/04/05 04:30:00;;;;;;;4.60;2.97;;;;;;;4.45;100.00;98884.13;5078417;28;20073;-78
2022/04/05 04:32:25;;;;;;;7.35;3.50;;;;;;;4.43;100.00;98878.03;5076750;28;20028;-79
2022/04/05 04:34:50;;;;;;;5.68;3.42;;;;;;;4.51;100.00;98878.66;5078685;28;20032;-78
2022/04/05 04:37:16;;;;;;;7.20;3.60;;;;;;;4.42;100.00;98884.22;5077290;28;20037;-78
2022/04/05 04:39:41;;;;;;;5.38;3.60;;;;;;;4.44;100.00;98887.66;5078563;28;20039;-79
2022/04/05 04:42:07;;;;;;;5.68;3.17;;;;;;;4.45;100.00;98881.50;5075233;28;20070;-78
2022/04/05 04:44:32;;;;;;;4.63;3.42;;;;;;;4.46;100.00;98888.50;5075134;28;20031;-78
2022/04/05 04:46:58;;;;;;;5.63;3.55;;;;;;;4.54;100.00;98894.44;5075601;28;20541;-78
2022/04/05 04:49:24;;;;;;;7.43;3.50;;;;;;;4.44;100.00;98892.97;5075132;28;20042;-78
2022/04/05 04:51:49;;;;;;;10.65;3.70;;;;;;;4.50;100.00;98895.44;5077461;28;20030;-78
2022/04/05 04:54:14;;;;;;;7.22;3.58;;;;;;;4.48;100.00;98889.34;5076338;28;20047;-79
2022/04/05 04:56:40;;;;;;;6.22;3.50;;;;;;;4.57;100.00;98899.66;5075900;28;20046;-78
2022/04/05 04:59:05;;;;;;;6.82;3.58;;;;;;;4.49;100.00;98901.63;5077330;28;20393;-78
2022/04/05 05:01:31;;;;;;;6.40;3.47;;;;;;;4.45;100.00;98907.91;5076946;28;20090;-78
2022/04/05 05:03:56;;;;;;;6.82;3.70;;;;;;;4.51;100.00;98910.38;5075788;28;20028;-79
2022/04/05 05:06:21;;;;;;;9.10;3.72;;;;;;;4.45;100.00;98910.56;5077071;28;20024;-78
2022/04/05 05:08:47;;;;;;;8.63;3.88;;;;;;;4.46;100.00;98913.16;5075931;28;20115;-78
2022/04/05 05:11:12;;;;;;;6.85;3.53;;;;;;;4.49;100.00;98912.22;5076856;28;20021;-78
2022/04/05 05:13:37;;;;;;;5.80;3.22;;;;;;;4.45;100.00;98918.50;5076509;28;20032;-79
2022/04/05 05:16:03;;;;;;;6.68;3.70;;;;;;;4.46;100.00;98922.84;5075547;28;20404;-79
2022/04/05 05:18:29;;;;;;;8.02;3.38;;;;;;;4.46;100.00;98920.22;5075479;28;20032;-78
2022/04/05 05:20:54;;;;;;;7.47;3.72;;;;;;;4.49;100.00;98917.50;5073778;28;20023;-78
2022/04/05 05:23:19;;;;;;;7.22;3.83;;;;;;;4.44;100.00;98920.25;5075859;28;20393;-79
2022/04/05 05:25:46;;;;;;;7.47;3.22;;;;;;;4.41;100.00;98924.75;5075555;28;20016;-79
2022/04/05 05:28:11;;;;;;;8.73;3.65;;;;;;;4.41;100.00;98930.91;5076939;28;20165;-79
2022/04/05 05:30:37;;;;;;;9.63;3.42;;;;;;;4.42;100.00;98926.50;5078387;28;20064;-79
2022/04/05 05:33:02;;;;;;;7.78;3.60;;;;;;;4.46;100.00;98936.06;5080215;28;20028;-79
2022/04/05 05:35:27;;;;;;;5.28;3.50;;;;;;;4.45;100.00;98942.28;5079525;28;20024;-79
2022/04/05 05:37:53;;;;;;;7.82;3.47;;;;;;;4.43;100.00;98944.09;5079453;28;20020;-79
2022/04/05 05:40:19;;;;;;;7.75;3.50;;;;;;;4.42;100.00;98943.22;5078831;28;20477;-79
2022/04/05 05:42:52;;;;;;;6.60;3.65;;;;;;;4.47;100.00;98945.75;5079363;28;20440;-79
2022/04/05 05:45:19;;;;;;;7.55;3.75;;;;;;;4.46;100.00;98949.28;5077583;28;20016;-79
2022/04/05 05:47:44;;;;;;;8.77;3.53;;;;;;;4.50;100.00;98940.38;5078316;28;20029;-79
2022/04/05 05:50:12;;;;;;;8.80;3.72;;;;;;;4.52;100.00;98949.13;5078006;28;20028;-79
2022/04/05 05:52:38;;;;;;;8.90;4.18;;;;;;;4.50;100.00;98947.44;5077685;28;20432;-79
2022/04/05 05:55:04;;;;;;;7.70;3.83;;;;;;;4.49;100.00;98951.84;5078194;28;20537;-79
2022/04/05 05:57:29;;;;;;;7.90;4.07;;;;;;;4.57;100.00;98951.66;5076580;28;20028;-79
2022/04/05 05:59:55;;;;;;;9.82;3.95;;;;;;;4.58;100.00;98942.81;5073988;28;20028;-79
2022/04/05 06:02:20;;;;;;;9.02;4.25;;;;;;;4.58;100.00;98953.41;5074670;28;20374;-79
2022/04/05 06:04:45;;;;;;;10.95;4.68;;;;;;;4.62;100.00;98954.16;5074176;28;20021;-79
2022/04/05 06:07:12;;;;;;;8.63;4.57;;;;;;;4.57;100.00;98952.53;5077213;28;20082;-79
2022/04/05 06:09:37;;;;;;;9.05;4.22;;;;;;;4.60;100.00;98956.00;5077348;28;20024;-79
2022/04/05 06:12:03;;;;;;;8.32;4.50;;;;;;;4.67;100.00;98957.56;5075795;28;20031;-79
2022/04/05 06:14:28;;;;;;;7.93;4.03;;;;;;;4.64;100.00;98963.78;5076877;28;20025;-79
2022/04/05 06:16:53;;;;;;;7.85;4.00;;;;;;;4.68;100.00;98954.00;5078065;28;20035;-79
2022/04/05 06:19:18;;;;;;;9.68;4.65;;;;;;;4.71;100.00;98955.72;5078275;28;20384;-79
2022/04/05 06:21:44;;;;;;;8.48;4.25;;;;;;;4.70;100.00;98960.13;5077023;28;20116;-79
2022/04/05 06:24:09;;;;;;;9.10;4.47;;;;;;;4.70;100.00;98952.19;5076937;28;20032;-79
2022/04/05 06:26:34;;;;;;;9.70;4.63;;;;;;;4.79;100.00;98951.09;5077321;28;20032;-79
2022/04/05 06:28:59;;;;;;;8.50;4.40;;;;;;;4.77;100.00;98959.03;5076808;28;20040;-79
2022/04/05 06:31:25;;;;;;;8.35;3.90;;;;;;;4.86;100.00;98957.94;5076368;28;20078;-79
2022/04/05 06:33:51;;;;;;;9.52;4.25;;;;;;;4.87;100.00;98964.09;5075000;28;20095;-78
2022/04/05 06:36:16;;;;;;;8.60;4.68;;;;;;;4.89;100.00;98970.19;5072731;28;20024;-79
2022/04/05 06:38:42;;;;;;;9.13;4.80;;;;;;;4.94;100.00;98965.66;5074520;28;20123;-79
2022/04/05 06:41:07;;;;;;;11.35;4.88;;;;;;;5.01;100.00;98971.63;5075478;28;20028;-79
2022/04/05 06:43:32;;;;;;;8.82;4.43;;;;;;;5.01;100.00;98968.97;5076573;28;20477;-79
2022/04/05 06:45:58;;;;;;;7.75;4.97;;;;;;;5.06;100.00;98968.84;5075635;28;20092;-79
2022/04/05 06:48:23;;;;;;;9.57;5.03;;;;;;;5.07;100.00;98970.59;5077720;28;20031;-79
2022/04/05 06:50:50;;;;;;;9.18;5.10;;;;;;;5.16;100.00;98965.03;5076324;28;20025;-79
2022/04/05 06:53:16;;;;;;;10.55;5.43;;;;;;;5.10;100.00;98976.66;5077679;28;20105;-79
2022/04/05 06:55:42;;;;;;;10.35;4.82;;;;;;;5.13;100.00;98971.28;5075883;28;20017;-79
2022/04/05 06:58:08;;;;;;;11.60;5.40;;;;;;;5.17;100.00;98973.84;5078002;28;20020;-79
2022/04/05 07:00:34;;;;;;;11.18;5.38;;;;;;;5.18;100.00;98978.22;5076520;28;20023;-79
2022/04/05 07:02:59;;;;;;;8.07;4.72;;;;;;;5.28;100.00;98977.06;5077443;28;20024;-79
2022/04/05 07:05:25;;;;;;;9.27;4.63;;;;;;;5.28;100.00;98971.75;5076231;28;20052;-79
2022/04/05 07:07:50;;;;;;;10.27;4.50;;;;;;;5.35;100.00;98960.06;5077451;28;20021;-79
2022/04/05 07:10:17;;;;;;;11.60;4.68;;;;;;;5.39;100.00;98979.34;5076569;28;20066;-79
2022/04/05 07:12:44;;;;;;;11.63;5.25;;;;;;;5.39;100.00;98967.91;5076538;28;20028;-79
2022/04/05 07:15:10;;;;;;;9.43;5.07;;;;;;;5.46;100.00;98967.66;5072011;28;20021;-79
2022/04/05 07:17:37;;;;;;;7.50;4.03;;;;;;;5.41;100.00;98969.59;5073487;28;20039;-79
2022/04/05 07:20:06;;;;;;;8.52;4.35;;;;;;;5.50;100.00;98968.44;5076541;28;20024;-80
2022/04/05 07:22:32;;;;;;;10.40;4.50;;;;;;;5.54;100.00;98963.94;5081978;28;20441;-79
2022/04/05 07:24:57;;;;;;;6.00;3.97;;;;;;;5.57;100.00;98969.13;5081350;28;20461;-80
2022/04/05 07:27:23;;;;;;;7.93;4.18;;;;;;;5.59;100.00;98970.81;5081742;28;20024;-79
2022/04/05 07:29:48;;;;;;;7.82;3.92;;;;;;;5.61;100.00;98976.06;5079960;28;20464;-79
2022/04/05 07:32:13;;;;;;;9.15;4.20;;;;;;;5.64;100.00;98976.00;5079370;28;20028;-79
2022/04/05 07:34:39;;;;;;;10.73;3.80;;;;;;;5.68;100.00;98971.44;5079514;28;20035;-79
2022/04/05 07:37:04;;;;;;;7.60;3.47;;;;;;;5.67;100.00;98965.28;5081251;28;20048;-80
2022/04/05 07:39:29;;;;;;;7.22;3.25;;;;;;;5.74;100.00;98965.09;5079246;28;20370;-80
2022/04/05 07:41:55;;;;;;;9.50;3.70;;;;;;;5.97;100.00;98955.53;5080757;28;20029;-79
2022/04/05 07:44:20;;;;;;;6.50;3.00;;;;;;;5.89;100.00;98964.63;5079375;28;20016;-79
2022/04/05 07:46:46;;;;;;;8.57;3.28;;;;;;;5.79;100.00;98968.47;5079546;28;20078;-79
2022/04/05 07:49:12;;;;;;;5.57;2.80;;;;;;;5.86;100.00;98966.47;5077663;28;20052;-79
2022/04/05 07:51:37;;;;;;;4.40;2.88;;;;;;;5.84;100.00;98969.19;5076683;28;20021;-79
2022/04/05 07:54:05;;;;;;;5.43;3.33;;;;;;;5.82;100.00;98965.72;5077892;28;20098;-79
2022/04/05 07:56:30;;;;;;;10.20;3.22;;;;;;;5.85;100.00;98962.13;5079428;28;20021;-80
2022/04/05 07:58:55;;;;;;;8.23;3.40;;;;;;;5.89;100.00;98964.63;5080602;28;20035;-79
2022/04/05 08:01:20;;;;;;;8.50;3.15;;;;;;;5.90;100.00;98971.63;5080173;28;20028;-79
2022/04/05 08:03:46;;;;;;;8.98;3.10;;;;;;;5.85;100.00;98968.25;5080946;28;20024;-79
2022/04/05 08:06:12;;;;;;;6.90;3.30;;;;;;;5.94;100.00;98961.81;5081376;28;20032;-80
2022/04/05 08:08:37;;;;;;;8.18;3.03;;;;;;;5.88;100.00;98968.16;5079957;28;20028;-79
2022/04/05 08:11:02;;;;;;;7.93;3.10;;;;;;;5.99;100.00;98964.31;5079422;28;20420;-79
2022/04/05 08:13:28;;;;;;;7.10;3.58;;;;;;;5.98;100.00;98963.44;5078933;28;20025;-80
2022/04/05 08:15:54;;;;;;;8.95;3.88;;;;;;;6.01;100.00;98962.47;5079716;28;20495;-79
2022/04/05 08:18:21;;;;;;;8.75;3.65;;;;;;;5.89;100.00;98964.63;5080938;28;20020;-79
2022/04/05 08:20:46;;;;;;;8.90;3.50;;;;;;;5.95;100.00;98967.97;5080043;28;20028;-79
2022/04/05 08:23:12;;;;;;;7.32;3.63;;;;;;;5.98;100.00;98974.03;5079382;28;20028;-79
2022/04/05 08:25:37;;;;;;;6.20;3.67;;;;;;;5.90;100.00;98976.94;5079539;28;20039;-79
2022/04/05 08:28:04;;;;;;;6.45;3.35;;;;;;;5.90;100.00;98976.94;5076554;28;20028;-79
2022/04/05 08:30:30;;;;;;;7.32;3.90;;;;;;;5.99;100.00;98972.25;5079184;28;20116;-79
2022/04/05 08:32:55;;;;;;;8.50;4.00;;;;;;;6.05;100.00;98974.72;5079145;28;20052;-79
2022/04/05 08:35:21;;;;;;;7.50;3.58;;;;;;;6.00;100.00;98985.47;5079887;28;20154;-80
2022/04/05 08:37:48;;;;;;;6.07;3.22;;;;;;;6.04;100.00;98973.84;5079363;28;20023;-80
2022/04/05 08:40:16;;;;;;;9.13;3.50;;;;;;;5.95;100.00;98979.47;5079355;28;20040;-79
2022/04/05 08:42:45;;;;;;;5.63;3.30;;;;;;;6.03;100.00;98976.56;5079479;28;20516;-79
2022/04/05 08:45:13;;;;;;;5.88;3.60;;;;;;;6.03;100.00;98971.25;5078725;28;20470;-80
2022/04/05 08:47:43;;;;;;;7.32;3.28;;;;;;;6.09;100.00;98976.38;5079078;28;20033;-79
2022/04/05 08:50:09;;;;;;;5.55;3.70;;;;;;;6.13;100.00;98964.75;5079153;28;20044;-79
2022/04/05 08:52:34;;;;;;;7.93;3.90;;;;;;;6.22;100.00;98975.97;5078117;28;20024;-79
2022/04/05 08:55:01;;;;;;;6.93;3.53;;;;;;;6.31;100.00;98969.50;5078630;28;20047;-79
2022/04/05 08:57:26;;;;;;;9.57;4.05;;;;;;;6.31;100.00;98970.38;5077658;28;20025;-80
2022/04/05 08:59:52;;;;;;;8.60;3.40;;;;;;;6.42;100.00;98969.97;5078377;28;20031;-79
2022/04/05 09:02:39;;;;;;;9.30;3.67;;;;;;;6.47;100.00;98969.81;5101212;22;20077;-85
2022/04/05 09:05:27;;;;;;;7.53;3.72;;;;;;;6.68;100.00;98970.00;5083290;28;20111;-86
2022/04/05 09:08:18;;;;;;;7.13;3.92;;;;;;;6.70;100.00;98978.78;5081914;28;20020;-86
2022/04/05 09:11:11;;;;;;;5.45;3.78;;;;;;;6.68;100.00;98975.31;5081599;28;20033;-86
2022/04/05 09:13:42;;;;;;;10.18;4.10;;;;;;;6.86;100.00;98970.25;5045940;28;20095;-85
2022/04/05 09:16:27;;;;;;;7.53;4.63;;;;;;;6.82;100.00;98970.41;5054800;28;20501;-86
2022/04/05 09:19:10;;;;;;;6.53;4.25;;;;;;;6.85;100.00;98979.16;5054198;28;20465;-85
2022/04/05 09:25:02;;;;;;;8.48;3.65;;;;;;;6.90;100.00;98966.59;5054948;28;20121;-85
2022/04/05 09:28:05;;;;;;;7.32;3.28;;;;;;;6.71;100.00;98967.25;5054154;28;20025;-86
2022/04/05 09:30:55;;;;;;;7.05;3.47;;;;;;;6.77;100.00;98967.03;5015536;28;20037;-84
2022/04/05 09:33:23;;;;;;;4.28;2.97;;;;;;;6.64;100.00;98971.03;5055177;28;20031;-85
2022/04/05 09:36:11;;;;;;;6.60;2.92;;;;;;;6.58;100.00;98978.28;5053417;28;20044;-85
2022/04/05 09:38:42;;;;;;;5.43;3.42;;;;;;;6.70;100.00;98973.50;5054373;28;20064;-85
2022/04/05 09:41:24;;;;;;;7.07;3.40;;;;;;;6.65;100.00;98980.75;5053858;28;20024;-84
2022/04/05 09:44:02;;;;;;;10.50;5.05;;;;;;;6.52;100.00;98978.50;5055231;28;20466;-85
2022/04/05 09:46:43;;;;;;;10.40;6.60;;;;;;;6.69;100.00;98974.41;5055195;28;20041;-83
2022/04/05 09:49:16;;;;;;;12.32;8.15;;;;;;;6.55;100.00;98978.38;5054460;28;20037;-85
2022/04/05 09:51:46;;;;;;;10.05;5.93;;;;;;;6.53;100.00;98974.94;5054766;28;20037;-86
2022/04/05 09:54:34;;;;;;;8.85;5.00;;;;;;;6.59;100.00;98968.56;5055368;28;20025;-85
2022/04/05 09:57:14;;;;;;;7.68;4.13;;;;;;;6.53;100.00;98969.63;5054904;28;20059;-85
2022/04/05 09:59:46;;;;;;;8.10;3.97;;;;;;;6.71;100.00;98961.94;5055528;28;20025;-86
2022/04/05 10:02:26;;;;;;;8.05;4.75;;;;;;;6.55;100.00;98965.13;5055738;28;20028;-86
2022/04/05 10:05:21;;;;;;;8.50;4.40;;;;;;;6.52;100.00;98962.56;5056138;28;20021;-84
2022/04/05 10:07:46;;;;;;;8.05;4.82;;;;;;;6.51;100.00;98960.88;5053142;28;20057;-86
2022/04/05 10:10:12;;;;;;;10.25;5.53;;;;;;;6.58;100.00;98967.69;5053827;28;20494;-84
2022/04/05 10:12:41;;;;;;;9.40;5.13;;;;;;;6.55;100.00;98964.25;5054661;28;20029;-85
2022/04/05 10:15:12;;;;;;;9.20;5.78;;;;;;;6.52;100.00;98962.56;5053825;28;20120;-86
2022/04/05 10:17:48;;;;;;;7.45;4.68;;;;;;;6.46;100.00;98962.81;5053924;28;20036;-85
2022/04/05 10:20:25;;;;;;;8.27;5.20;;;;;;;6.55;100.00;98962.47;5054962;28;20036;-85
2022/04/05 10:23:02;;;;;;;7.20;4.55;;;;;;;6.37;100.00;98954.25;5055861;28;20017;-84
2022/04/05 10:25:32;;;;;;;8.18;5.78;;;;;;;6.33;100.00;98954.41;5056517;28;20474;-86
2022/04/05 10:28:16;;;;;;;8.15;5.70;;;;;;;6.45;100.00;98958.41;5062518;28;20028;-85
2022/04/05 10:30:59;;;;;;;7.68;4.75;;;;;;;6.55;100.00;98959.81;5063067;28;20025;-86
2022/04/05 10:34:22;;;;;;;5.97;4.18;;;;;;;6.42;100.00;98955.84;5062966;28;20489;-86
2022/04/05 10:37:08;;;;;;;6.13;4.10;;;;;;;6.60;100.00;98946.41;5004192;28;20443;-86
2022/04/05 10:39:37;;;;;;;5.65;3.20;;;;;;;6.62;100.00;98943.72;5004254;28;20038;-86
2022/04/05 10:42:21;;;;;;;9.25;5.30;;;;;;;6.67;100.00;98942.63;5046034;28;20029;-86
2022/04/05 10:45:11;;;;;;;5.18;3.67;;;;;;;6.78;100.00;98941.34;5057222;28;20385;-84
2022/04/05 10:47:58;;;;;;;4.88;3.17;;;;;;;6.61;100.00;98934.88;5049897;28;20037;-86
2022/04/05 10:50:24;;;;;;;4.10;3.00;;;;;;;6.66;100.00;98932.94;5059956;28;20021;-86
2022/04/05 10:53:13;;;;;;;5.70;3.67;;;;;;;6.64;100.00;98925.94;5059507;28;20043;-86
2022/04/05 10:56:10;;;;;;;5.13;3.40;;;;;;;6.62;100.00;98931.31;5062923;28;20028;-86
2022/04/05 10:59:04;;;;;;;5.95;3.50;;;;;;;6.67;100.00;98923.19;5063463;28;20025;-86
2022/04/05 11:01:44;;;;;;;7.35;4.50;;;;;;;6.68;100.00;98917.81;5054919;28;20036;-87
2022/04/05 11:04:17;;;;;;;6.00;4.30;;;;;;;6.84;100.00;98924.34;5063744;28;20057;-86
2022/04/05 11:07:21;;;;;;;10.02;5.32;;;;;;;6.87;100.00;98911.84;5061378;28;20029;-86
2022/04/05 11:10:05;;;;;;;5.65;3.72;;;;;;;6.93;100.00;98918.72;5061392;28;20029;-85
2022/04/05 11:12:39;;;;;;;;;;;;;;;6.86;100.00;98922.50;5063289;28;20033;-86
2022/04/05 11:15:16;;;;;;;5.50;3.35;;;;;;;6.88;100.00;98915.38;5062804;28;19919;-86
2022/04/05 11:17:45;;;;;;;4.25;2.90;;;;;;;6.89;100.00;98922.41;5062564;28;20021;-85
2022/04/05 11:20:20;;;;;;;4.10;2.67;;;;;;;6.90;100.00;98918.81;5062175;28;20028;-85
2022/04/05 11:23:01;;;;;;;4.40;3.03;;;;;;;6.94;100.00;98917.78;5057132;28;20031;-85
2022/04/05 11:25:31;;;;;;;4.07;3.08;;;;;;;7.08;100.00;98916.41;5059527;28;20048;-86
2022/04/05 11:28:10;;;;;;;3.95;2.67;;;;;;;7.01;100.00;98926.41;5061889;28;20028;-84
2022/04/05 11:30:44;;;;;;;4.18;3.08;;;;;;;7.03;100.00;98920.13;5062443;28;20028;-86
2022/04/05 11:33:39;;;;;;;4.88;3.35;;;;;;;6.99;100.00;98918.47;5061580;28;20504;-86
2022/04/05 11:36:25;;;;;;;5.03;3.40;;;;;;;7.05;100.00;98922.69;5060365;28;20099;-86
2022/04/05 11:38:58;;;;;;;4.47;3.03;;;;;;;7.17;100.00;98915.19;5062983;28;20016;-86
2022/04/05 11:41:30;;;;;;;4.35;3.30;;;;;;;7.17;100.00;98908.09;5062125;28;20040;-86
2022/04/05 11:44:02;;;;;;;5.25;3.45;;;;;;;7.19;100.00;98903.56;5060848;28;20033;-86